Hovedside
METAR-TAF:

METAR-TAF

Lufthavner :

Vadodara, India

breddegrad: 22-19-46N, lengdegrad: 73-13-10E, høyde over havet: 39 m

Gjeldene værobservasjon

Denne rapporten ble laget for 4 timer og 55 minutter siden, klokken 16:30 UTC
Vind 9 kt fra Sør-sørvest med vindkast opp mot 19 kt
Temperatur 32°C
Luftfuktighet 63%
Trykk 1003 hPa
Sikt: 4000 m
Få skyer i en høyde av 8000 ft
dis,

METAR: VABO 141630Z 20009G19KT 4000 HZ FEW080 32/24 Q1003 NOSIG

Tid: 02:55 (21:25 UTC)

Varsel

Denne rapporten ble laget for 1 time og 25 minutter siden, klokken 20:00 UTC
Varsel gyldig fra 14. klokken 21 UTC til 15. klokken 06 UTC
Vind 10 kt fra Sør-sørvest
Sikt: 4000 m
Spredte skyer i en høyde av 2000 ft
dis, røyk
Blir
fra 14. klokken 22 UTC til 14. klokken 24 UTC
Vind 6 kt fra Sørvest
dis
Blir
fra 15. klokken 04 UTC til 15. klokken 06 UTC
Vind 10 kt fra Sørvest
Sikt: 6000 m
Få skyer i en høyde av 2000 ft

TAF: VABO 142000Z 1421/1506 20010KT 4000 HZ FU SCT020 BECMG 1422/1424 23006KT HZ BECMG 1504/1506 23010KT 6000 FEW020

Værobservasjoner og værvarsel for over 4000 flyplasser (METAR- og TAF-rapporter).

Tilgjengelige stasjoner er representert av de røde og gule prikkene på kartet.

Hold musepekeren over prikken for å se navnet på stasjonen.

Klikk så for å se værobservasjoner og -varsler.

For å forandre kartet kan du klikke på den grønne knappen med svart kryss for å zoome inn, på den grønne knappen med strek for å zoome ut, eller på de grønne pilene for å se tilstøtende kart.


METAR-TAF: